HTKA

Kigoma Airport

Kigoma, Tanzania
METAR HTKA 201200Z 23004KT 9999 FEW025 FEW026CB SCT110 28/20 Q1015
Observed Flight Rules
Oct-20 @ 12:00 UTC (52 minutes ago) Visual Flight Rules
Wind Visibility Clouds
230° at 4 knots 10,000+ meters
  • Few at 2,500' AGL
  • Few at 2,600' AGL
  • Scattered at 11,000' AGL
Temperatures Readings
Current 28°C / 82°F
Dewpoint 20°C / 68°F
Humidity 62%
Altimeter 29.97" Hg
Pressure 1015 hPa
Elevation 885
METAR HTKA 201200Z 23004KT 9999 FEW025 FEW026CB SCT110 28/20 Q1015
Observed Flight Rules
Oct-20 @ 12:00 UTC
(52 minutes ago)
VFR
Wind Visibility
230° at 4 knots 10,000+ meters
Clouds
  • Few at 2,500' AGL
  • Few at 2,600' AGL
  • Scattered at 11,000' AGL
Temperature Dewpoint
28°C / 82°F 20°C / 68°F
Humidity Altimeter Pressure
62% 29.97" Hg 1015 hPa